Oakfield, Ohio
Current Conditions -  °F | °C
As of 1:51 PM on Thursday 23 Oct 2014 (Local Time) from KYNG Reporting Station
Broken Clouds Broken Clouds  
Wind Chill: 59°   Ceiling: 3200
Heat Index: 59°   Visibility: 10mi
Dew Point: 44°   Wind: 14mph
Humidity: 58%   Direction: 340°NNW
Pressure: 30.12"   Gusts: NA
Location:  41.4555°N, 80.829°W
Report Text: KYNG 231751Z 34012KT 10SM BKN032 15/07 A3012 RMK AO2 SLP202 T01500067 10150 20056 58013
Loading
Personal Weather Stations






























Interactive Weather Map
Tropical Storm Tracking
New forecast layout! Learn more

10-Day Weather Forecast

Advertisements
Track Severe Weather on mobile